Darstellungsparameter: Aktuell verwendete Einstellungen:
Skalierung der Graphiken ... ?
xyx+y,   Skalierungsfaktor:      Skalierung: Modus: x, Faktor: 1
Darstellungszeitraum ... ?
Vom - - bis: - -   Zeitraum: 30.09.2006 - 29.09.2007
Min/Max/Avg-Anzeige ... ?
Zeige MMA aktuell
Zeige MMA Monat
Zeige MMA alles
Zeige --A aktuell
Zeige --A Monat
Zeige --A alles
Keine MMA-Anzeige
MMA:
Average (ber die Originaldaten)
MMA-Basis: 23.02.2003 - 30.09.2020
Quicknavigation für Darstellung... ?
Tage:      1T, 2T, 3T, 5T -1T -2T -3T -5T +1T +2T +3T +5T
Wochen: 1W, 2W, 3W -1W -2W -3W +1W +2W +3W
Monate: 1M, 3M, 6M -1M -3M -6M +1M +3M +6M
Jahre:    1J, 3J, 5J, 10J -1J -3J -5J -10J +1J +3J +5J +10J
Nutze für die Darstellung ... ?
Originaldaten oder ...
Mittelwerte Minima Maxima auf...
Stundenbasis Tagesbasis Wochenbasis
Monatsbasis Jahresbasis      Datenbasis: Mittelwerte auf Tagesbasis
Darstellen als:
Statistik (Auto) Statistik J:M      Darstellung:
Zur Graphik,    zurück zur Übersicht aller Sensoren.
 
Tabellarische Datenbersicht: ?
 
Sensor: Nr:Datum:Temp:Abs-Feuchte:Windchill:Wind:
Aussen-T/F 1 30-09-2006 00:00:00 17.09583 C 10.68 g/m*3 17.1 C 0 km/h
2 01-10-2006 00:00:00 17.24406 C 11.46 g/m*3 17.24 C 0 km/h
3 02-10-2006 00:00:00 15.91042 C 9.59 g/m*3 15.91 C 0 km/h
4 03-10-2006 00:00:00 13.2126 C 10.47 g/m*3 13.21 C 0 km/h
5 04-10-2006 00:00:00 13.01961 C 8.62 g/m*3 13.02 C 0 km/h
6 05-10-2006 00:00:00 12.97647 C 7.92 g/m*3 12.98 C 0 km/h
7 06-10-2006 00:00:00 15.82353 C 9.57 g/m*3 15.82 C 0 km/h
8 07-10-2006 00:00:00 14.25769 C 8.26 g/m*3 14.26 C 0 km/h
9 08-10-2006 00:00:00 11.08235 C 7.49 g/m*3 11.08 C 0 km/h
10 09-10-2006 00:00:00 12.00192 C 8.16 g/m*3 12 C 0 km/h
11 10-10-2006 00:00:00 15.38824 C 9.83 g/m*3 15.39 C 0 km/h
12 11-10-2006 00:00:00 14.37885 C 9.66 g/m*3 14.38 C 0 km/h
13 12-10-2006 00:00:00 15.54118 C 10.53 g/m*3 15.54 C 0 km/h
14 13-10-2006 00:00:00 16.11765 C 11.21 g/m*3 16.12 C 0 km/h
15 14-10-2006 00:00:00 14.12115 C 9.1 g/m*3 14.12 C 0 km/h
16 15-10-2006 00:00:00 12.41569 C 8.17 g/m*3 12.42 C 0 km/h
17 16-10-2006 00:00:00 9.56154 C 7.1 g/m*3 9.56 C 0 km/h
18 17-10-2006 00:00:00 9.22745 C 7.11 g/m*3 9.23 C 0 km/h
19 18-10-2006 00:00:00 11.90769 C 8.05 g/m*3 11.91 C 0 km/h
20 19-10-2006 00:00:00 13.41961 C 9.54 g/m*3 13.42 C 0 km/h
21 20-10-2006 00:00:00 15.83725 C 9.91 g/m*3 15.84 C 0 km/h
22 21-10-2006 00:00:00 14.08553 C 10.16 g/m*3 14.09 C 0 km/h
23 22-10-2006 00:00:00 15.405 C 9.54 g/m*3 15.41 C 0 km/h
24 23-10-2006 00:00:00 17.22 C 11.01 g/m*3 17.22 C 0 km/h
25 24-10-2006 00:00:00 14.19167 C 9.57 g/m*3 14.19 C 0 km/h
Sensor: Nr:Datum:Temp:Abs-Feuchte:Windchill:Wind:
Aussen-T/F 26 25-10-2006 00:00:00 12.59167 C 8.45 g/m*3 12.59 C 0 km/h
27 26-10-2006 00:00:00 16.50583 C 9.43 g/m*3 16.51 C 0 km/h
28 27-10-2006 00:00:00 17.075 C 10.44 g/m*3 17.08 C 0 km/h
29 28-10-2006 00:00:00 15.02083 C 10.11 g/m*3 15.02 C 0 km/h
30 29-10-2006 00:00:00 15.9896 C 8.79 g/m*3 15.99 C 0 km/h
31 30-10-2006 00:00:00 12.1575 C 7.78 g/m*3 12.16 C 0 km/h
32 31-10-2006 00:00:00 10.23529 C 7.15 g/m*3 10.24 C 0 km/h
33 01-11-2006 00:00:00 7.77167 C 4.9 g/m*3 7.77 C 0 km/h
34 02-11-2006 00:00:00 3.03 C 5.06 g/m*3 3.03 C 0 km/h
35 03-11-2006 00:00:00 5.84333 C 5.93 g/m*3 5.84 C 0 km/h
36 04-11-2006 00:00:00 8.15833 C 6.41 g/m*3 8.16 C 0 km/h
37 05-11-2006 00:00:00 9.14833 C 6.17 g/m*3 9.15 C 0 km/h
38 06-11-2006 00:00:00 9.06833 C 6.39 g/m*3 9.07 C 0 km/h
39 07-11-2006 00:00:00 7.04083 C 6.11 g/m*3 7.04 C 0 km/h
40 08-11-2006 00:00:00 7.96417 C 6.49 g/m*3 7.96 C 0 km/h
41 09-11-2006 00:00:00 9.81917 C 6.62 g/m*3 9.82 C 0 km/h
42 10-11-2006 00:00:00 5.04917 C 5.59 g/m*3 5.05 C 0 km/h
43 11-11-2006 00:00:00 6.26667 C 6.03 g/m*3 6.27 C 0 km/h
44 12-11-2006 00:00:00 7.62353 C 5.75 g/m*3 7.62 C 0 km/h
45 13-11-2006 00:00:00 8.9025 C 7.09 g/m*3 8.9 C 0 km/h
46 14-11-2006 00:00:00 12.84083 C 9.06 g/m*3 12.84 C 0 km/h
47 15-11-2006 00:00:00 12.90167 C 8.11 g/m*3 12.9 C 0 km/h
48 16-11-2006 00:00:00 13.12 C 7.88 g/m*3 13.12 C 0 km/h
49 17-11-2006 00:00:00 12.54333 C 8.13 g/m*3 12.54 C 0 km/h
50 18-11-2006 00:00:00 9.73917 C 6.92 g/m*3 9.74 C 0 km/h
Sensor: Nr:Datum:Temp:Abs-Feuchte:Windchill:Wind:
Aussen-T/F 51 19-11-2006 00:00:00 7.74083 C 7.39 g/m*3 7.74 C 0 km/h
52 20-11-2006 00:00:00 6.5725 C 5.52 g/m*3 6.57 C 0 km/h
53 21-11-2006 00:00:00 8.63583 C 6.49 g/m*3 8.64 C 0 km/h
54 22-11-2006 00:00:00 6.01833 C 5.31 g/m*3 6.02 C 0 km/h
55 23-11-2006 00:00:00 9.36083 C 7.72 g/m*3 9.36 C 0 km/h
56 24-11-2006 00:00:00 10.1775 C 8.17 g/m*3 10.18 C 0 km/h
57 25-11-2006 00:00:00 14.79583 C 7.59 g/m*3 14.8 C 0 km/h
58 26-11-2006 00:00:00 10.72917 C 7.46 g/m*3 10.73 C 0 km/h
59 27-11-2006 00:00:00 8.08083 C 7.39 g/m*3 8.08 C 0 km/h
60 28-11-2006 00:00:00 7.2775 C 6.92 g/m*3 7.28 C 0 km/h
61 29-11-2006 00:00:00 7.40583 C 7.46 g/m*3 7.41 C 0 km/h
62 30-11-2006 00:00:00 6.29167 C 6.41 g/m*3 6.29 C 0 km/h
63 01-12-2006 00:00:00 5.935 C 6.4 g/m*3 5.94 C 0 km/h
64 02-12-2006 00:00:00 4.37083 C 6.16 g/m*3 4.37 C 0 km/h
65 03-12-2006 00:00:00 10.00583 C 6.96 g/m*3 10.01 C 0 km/h
66 04-12-2006 00:00:00 10.05042 C 6.32 g/m*3 10.05 C 0 km/h
67 05-12-2006 00:00:00 14.25917 C 7.5 g/m*3 14.26 C 0 km/h
68 06-12-2006 00:00:00 10.42667 C 6.11 g/m*3 10.43 C 0 km/h
69 07-12-2006 00:00:00 8.7025 C 5.3 g/m*3 8.7 C 0 km/h
70 08-12-2006 00:00:00 10.0975 C 6.14 g/m*3 10.1 C 0 km/h
71 09-12-2006 00:00:00 7.6075 C 4.91 g/m*3 7.61 C 0 km/h
72 10-12-2006 00:00:00 5.27833 C 4.83 g/m*3 5.28 C 0 km/h
73 11-12-2006 00:00:00 5.05583 C 4.74 g/m*3 5.06 C 0 km/h
74 12-12-2006 00:00:00 6.37333 C 5.29 g/m*3 6.37 C 0 km/h
75 13-12-2006 00:00:00 6.9775 C 5.44 g/m*3 6.98 C 0 km/h
Sensor: Nr:Datum:Temp:Abs-Feuchte:Windchill:Wind:
Aussen-T/F 76 14-12-2006 00:00:00 7.83083 C 5.4 g/m*3 7.83 C 0 km/h
77 15-12-2006 00:00:00 3.2075 C 4.68 g/m*3 3.21 C 0 km/h
78 16-12-2006 00:00:00 4.14333 C 5.23 g/m*3 4.14 C 0 km/h
79 17-12-2006 00:00:00 3.69333 C 5.01 g/m*3 3.69 C 0 km/h
80 18-12-2006 00:00:00 3.37917 C 5.38 g/m*3 3.38 C 0 km/h
81 19-12-2006 00:00:00 3.70083 C 4.15 g/m*3 3.7 C 0 km/h
82 20-12-2006 00:00:00 2.3425 C 4.1 g/m*3 2.34 C 0 km/h
83 21-12-2006 00:00:00 4.7375 C 5.27 g/m*3 4.74 C 0 km/h
84 22-12-2006 00:00:00 1.65 C 4.63 g/m*3 1.65 C 0 km/h
85 23-12-2006 00:00:00 3.19244 C 4.47 g/m*3 3.19 C 0 km/h
86 24-12-2006 00:00:00 0.1725 C 4.3 g/m*3 0.17 C 0 km/h
87 25-12-2006 00:00:00 0.51583 C 4.15 g/m*3 0.52 C 0 km/h
88 26-12-2006 00:00:00 0.8425 C 3.93 g/m*3 0.84 C 0 km/h
89 27-12-2006 00:00:00 -1.28667 C 3.48 g/m*3 -1.29 C 0 km/h
90 28-12-2006 00:00:00 0.405 C 3.88 g/m*3 0.41 C 0 km/h
91 29-12-2006 00:00:00 1.22333 C 4.59 g/m*3 1.22 C 0 km/h
92 30-12-2006 00:00:00 3.5575 C 5.12 g/m*3 3.56 C 0 km/h
93 31-12-2006 00:00:00 10.37107 C 5.17 g/m*3 10.37 C 0 km/h
94 01-01-2007 00:00:00 7.99664 C 5.44 g/m*3 8 C 0 km/h
95 02-01-2007 00:00:00 4.33083 C 4.79 g/m*3 4.33 C 0 km/h
96 03-01-2007 00:00:00 5.63417 C 5.28 g/m*3 5.63 C 0 km/h
97 04-01-2007 00:00:00 7.7525 C 5.33 g/m*3 7.75 C 0 km/h
98 05-01-2007 00:00:00 8.08667 C 5.69 g/m*3 8.09 C 0 km/h
99 06-01-2007 00:00:00 10.50333 C 7.18 g/m*3 10.5 C 0 km/h
100 07-01-2007 00:00:00 8.5725 C 5.21 g/m*3 8.57 C 0 km/h
Sensor: Nr:Datum:Temp:Abs-Feuchte:Windchill:Wind:
Aussen-T/F 101 08-01-2007 00:00:00 9.32667 C 5.75 g/m*3 9.33 C 0 km/h
102 09-01-2007 00:00:00 13.04333 C 7.07 g/m*3 13.04 C 0 km/h
103 10-01-2007 00:00:00 11.54333 C 5.64 g/m*3 11.54 C 0 km/h
104 11-01-2007 00:00:00 7.61933 C 4.64 g/m*3 7.62 C 0 km/h
105 12-01-2007 00:00:00 9.0325 C 4.92 g/m*3 9.03 C 0 km/h
106 13-01-2007 00:00:00 11.8175 C 6.14 g/m*3 11.82 C 0 km/h
107 14-01-2007 00:00:00 7.55833 C 4.65 g/m*3 7.56 C 0 km/h
108 15-01-2007 00:00:00 0.8725 C 4.34 g/m*3 0.87 C 0 km/h
109 16-01-2007 00:00:00 5.06583 C 4.9 g/m*3 5.07 C 0 km/h
110 17-01-2007 00:00:00 10.18333 C 6.05 g/m*3 10.18 C 0 km/h
111 18-01-2007 00:00:00 12.41833 C 7.26 g/m*3 12.42 C 0 km/h
112 19-01-2007 00:00:00 10.36667 C 6.21 g/m*3 10.37 C 0 km/h
113 20-01-2007 00:00:00 11.68917 C 6.43 g/m*3 11.69 C 0 km/h
114 21-01-2007 00:00:00 6.88167 C 3.9 g/m*3 6.88 C 0 km/h
115 22-01-2007 00:00:00 4.26167 C 3.78 g/m*3 4.26 C 0 km/h
116 23-01-2007 00:00:00 -1.075 C 1.21 g/m*3 -1.08 C 0 km/h
117 24-01-2007 00:00:00 -2.97 C 1.85 g/m*3 -2.97 C 0 km/h
118 25-01-2007 00:00:00 -3.4825 C 2.25 g/m*3 -3.48 C 0 km/h
119 26-01-2007 00:00:00 -3.23083 C 2.24 g/m*3 -3.23 C 0 km/h
120 27-01-2007 00:00:00 2.77 C 3.92 g/m*3 2.77 C 0 km/h
121 28-01-2007 00:00:00 4.49917 C 4.21 g/m*3 4.5 C 0 km/h
122 29-01-2007 00:00:00 7.0175 C 5.25 g/m*3 7.02 C 0 km/h
123 30-01-2007 00:00:00 6.84917 C 5.2 g/m*3 6.85 C 0 km/h
124 31-01-2007 00:00:00 6.82583 C 4.18 g/m*3 6.83 C 0 km/h
125 01-02-2007 00:00:00 7.76667 C 5.68 g/m*3 7.77 C 0 km/h
Sensor: Nr:Datum:Temp:Abs-Feuchte:Windchill:Wind:
Aussen-T/F 126 02-02-2007 00:00:00 8.26583 C 6.84 g/m*3 8.27 C 0 km/h
127 03-02-2007 00:00:00 6.285 C 4.67 g/m*3 6.29 C 0 km/h
128 04-02-2007 00:00:00 5.90667 C 4.74 g/m*3 5.91 C 0 km/h
129 05-02-2007 00:00:00 2.19664 C 4.27 g/m*3 2.2 C 0 km/h
130 06-02-2007 00:00:00 3.33417 C 4.06 g/m*3 3.33 C 0 km/h
131 07-02-2007 00:00:00 1.63417 C 4.12 g/m*3 1.63 C 0 km/h
132 08-02-2007 00:00:00 2.62167 C 4.23 g/m*3 2.62 C 0 km/h
133 09-02-2007 00:00:00 5.79167 C 3.84 g/m*3 5.79 C 0 km/h
134 10-02-2007 00:00:00 5.48667 C 5.34 g/m*3 5.49 C 0 km/h
135 11-02-2007 00:00:00 7.70667 C 5.71 g/m*3 7.71 C 0 km/h
136 12-02-2007 00:00:00 8.33083 C 5.62 g/m*3 8.33 C 0 km/h
137 13-02-2007 00:00:00 7.8175 C 4.79 g/m*3 7.82 C 0 km/h
138 14-02-2007 00:00:00 5.82083 C 5.14 g/m*3 5.82 C 0 km/h
139 15-02-2007 00:00:00 7.37917 C 4.4 g/m*3 7.38 C 0 km/h
140 16-02-2007 00:00:00 4.61583 C 4.23 g/m*3 4.62 C 0 km/h
141 17-02-2007 00:00:00 4.92083 C 3.9 g/m*3 4.92 C 0 km/h
142 18-02-2007 00:00:00 3.4775 C 4.32 g/m*3 3.48 C 0 km/h
143 19-02-2007 00:00:00 5.4675 C 4.34 g/m*3 5.47 C 0 km/h
144 20-02-2007 00:00:00 7.09583 C 4.63 g/m*3 7.1 C 0 km/h
145 21-02-2007 00:00:00 5.63083 C 4.98 g/m*3 5.63 C 0 km/h
146 22-02-2007 00:00:00 7.10583 C 5.19 g/m*3 7.11 C 0 km/h
147 23-02-2007 00:00:00 9.02333 C 5.53 g/m*3 9.02 C 0 km/h
148 24-02-2007 00:00:00 8.47917 C 6.6 g/m*3 8.48 C 0 km/h
149 25-02-2007 00:00:00 7.975 C 5.55 g/m*3 7.98 C 0 km/h
150 26-02-2007 00:00:00 6.53667 C 5.43 g/m*3 6.54 C 0 km/h
Sensor: Nr:Datum:Temp:Abs-Feuchte:Windchill:Wind:
Aussen-T/F 151 27-02-2007 00:00:00 6.38333 C 4.96 g/m*3 6.38 C 0 km/h
152 28-02-2007 00:00:00 10.44667 C 5.35 g/m*3 10.45 C 0 km/h
153 01-03-2007 00:00:00 9.04667 C 5.11 g/m*3 9.05 C 0 km/h
154 02-03-2007 00:00:00 6.77917 C 3.71 g/m*3 6.78 C 0 km/h
155 03-03-2007 00:00:00 6.66639 C 4.88 g/m*3 6.67 C 0 km/h
156 04-03-2007 00:00:00 7.69833 C 4.83 g/m*3 7.7 C 0 km/h
157 05-03-2007 00:00:00 10.24667 C 4.19 g/m*3 10.25 C 0 km/h
158 06-03-2007 00:00:00 9.76083 C 4.14 g/m*3 9.76 C 0 km/h
159 07-03-2007 00:00:00 9.16417 C 4.96 g/m*3 9.16 C 0 km/h
160 08-03-2007 00:00:00 7.035 C 4.54 g/m*3 7.04 C 0 km/h
161 09-03-2007 00:00:00 6.3175 C 4.84 g/m*3 6.32 C 0 km/h
162 10-03-2007 00:00:00 7.155 C 4.37 g/m*3 7.16 C 0 km/h
163 11-03-2007 00:00:00 7.3175 C 4.45 g/m*3 7.32 C 0 km/h
164 12-03-2007 00:00:00 8.52833 C 4.75 g/m*3 8.53 C 0 km/h
165 13-03-2007 00:00:00 9.0475 C 5.4 g/m*3 9.05 C 0 km/h
166 14-03-2007 00:00:00 10.57395 C 5.78 g/m*3 10.57 C 0 km/h
167 15-03-2007 00:00:00 8.44333 C 5.18 g/m*3 8.44 C 0 km/h
168 16-03-2007 00:00:00 7.8175 C 5.18 g/m*3 7.82 C 0 km/h
169 17-03-2007 00:00:00 8.70833 C 6.38 g/m*3 8.71 C 0 km/h
170 18-03-2007 00:00:00 7.715 C 5.51 g/m*3 7.72 C 0 km/h
171 19-03-2007 00:00:00 4.56333 C 4 g/m*3 4.56 C 0 km/h
172 20-03-2007 00:00:00 4.1325 C 4.47 g/m*3 4.13 C 0 km/h
173 21-03-2007 00:00:00 4.47417 C 4.53 g/m*3 4.47 C 0 km/h
174 22-03-2007 00:00:00 2.25667 C 5.17 g/m*3 2.26 C 0 km/h
175 23-03-2007 00:00:00 3.37333 C 5.31 g/m*3 3.37 C 0 km/h
Sensor: Nr:Datum:Temp:Abs-Feuchte:Windchill:Wind:
Aussen-T/F 176 24-03-2007 00:00:00 5.37333 C 6.27 g/m*3 5.37 C 0 km/h
177 25-03-2007 00:00:00 8.58101 C 5.72 g/m*3 8.58 C 0 km/h
178 26-03-2007 00:00:00 14.9957 C 4.93 g/m*3 15 C 0 km/h
179 27-03-2007 00:00:00 11.65 C 4.69 g/m*3 11.65 C 0 km/h
180 28-03-2007 00:00:00 11.65313 C 4.21 g/m*3 11.65 C 0 km/h
181 29-03-2007 00:00:00 9.75 C 5.52 g/m*3 9.75 C 0 km/h
182 30-03-2007 00:00:00 10.73785 C 6.65 g/m*3 10.74 C 0 km/h
183 31-03-2007 00:00:00 10.49618 C 6.1 g/m*3 10.5 C 0 km/h
184 01-04-2007 00:00:00 13.71707 C 4.51 g/m*3 13.72 C 0 km/h
185 02-04-2007 00:00:00 13.59583 C 4.59 g/m*3 13.6 C 0 km/h
186 03-04-2007 00:00:00 8.94861 C 4.81 g/m*3 8.95 C 0 km/h
187 04-04-2007 00:00:00 9.66076 C 3.85 g/m*3 9.66 C 0 km/h
188 05-04-2007 00:00:00 8.81528 C 4.24 g/m*3 8.82 C 0 km/h
189 06-04-2007 00:00:00 12.12431 C 6.2 g/m*3 12.12 C 0 km/h
190 07-04-2007 00:00:00 9.61533 C 5.4 g/m*3 9.62 C 0 km/h
191 08-04-2007 00:00:00 9.79306 C 5.37 g/m*3 9.79 C 0 km/h
192 09-04-2007 00:00:00 11.52465 C 5.47 g/m*3 11.52 C 0 km/h
193 10-04-2007 00:00:00 11.94688 C 6.26 g/m*3 11.95 C 0 km/h
194 11-04-2007 00:00:00 10.93697 C 6.87 g/m*3 10.94 C 0 km/h
195 12-04-2007 00:00:00 16.75 C 7.24 g/m*3 16.75 C 0 km/h
196 13-04-2007 00:00:00 19.17708 C 8 g/m*3 19.18 C 0 km/h
197 14-04-2007 00:00:00 21.16042 C 7.77 g/m*3 21.16 C 0 km/h
198 15-04-2007 00:00:00 20.80833 C 7.27 g/m*3 20.81 C 0 km/h
199 16-04-2007 00:00:00 19.4375 C 6.62 g/m*3 19.44 C 0 km/h
200 17-04-2007 00:00:00 14.74271 C 6.57 g/m*3 14.74 C 0 km/h
Sensor: Nr:Datum:Temp:Abs-Feuchte:Windchill:Wind:
Aussen-T/F 201 18-04-2007 00:00:00 11.07188 C 4.76 g/m*3 11.07 C 0 km/h
202 19-04-2007 00:00:00 11.67188 C 5.25 g/m*3 11.67 C 0 km/h
203 20-04-2007 00:00:00 12.26458 C 4.91 g/m*3 12.26 C 0 km/h
204 21-04-2007 00:00:00 11.89271 C 4.5 g/m*3 11.89 C 0 km/h
205 22-04-2007 00:00:00 15.65729 C 5.54 g/m*3 15.66 C 0 km/h
206 23-04-2007 00:00:00 17.48021 C 6.48 g/m*3 17.48 C 0 km/h
207 24-04-2007 00:00:00 20.85102 C 8.12 g/m*3 20.85 C 0 km/h
208 25-04-2007 00:00:00 22.135 C 8.68 g/m*3 22.14 C 0 km/h
209 26-04-2007 00:00:00 21.16 C 7.81 g/m*3 21.16 C 0 km/h
210 27-04-2007 00:00:00 20.46303 C 7.42 g/m*3 20.46 C 0 km/h
211 28-04-2007 00:00:00 20.92083 C 7.71 g/m*3 20.92 C 0 km/h
212 29-04-2007 00:00:00 19.75583 C 7.1 g/m*3 19.76 C 0 km/h
213 30-04-2007 00:00:00 16.78917 C 4.21 g/m*3 16.79 C 0 km/h
214 01-05-2007 00:00:00 16.47083 C 4.66 g/m*3 16.47 C 0 km/h
215 02-05-2007 00:00:00 16.09167 C 3.81 g/m*3 16.09 C 0 km/h
216 03-05-2007 00:00:00 17.355 C 5.15 g/m*3 17.36 C 0 km/h
217 04-05-2007 00:00:00 18.835 C 5.97 g/m*3 18.84 C 0 km/h
218 05-05-2007 00:00:00 17.5975 C 6.18 g/m*3 17.6 C 0 km/h
219 06-05-2007 00:00:00 16.51167 C 7.41 g/m*3 16.51 C 0 km/h
220 07-05-2007 00:00:00 15.5625 C 8.64 g/m*3 15.56 C 0 km/h
221 08-05-2007 00:00:00 14.1825 C 7.73 g/m*3 14.18 C 0 km/h
222 09-05-2007 00:00:00 12.76917 C 8.87 g/m*3 12.77 C 0 km/h
223 10-05-2007 00:00:00 17.70667 C 8.53 g/m*3 17.71 C 0 km/h
224 11-05-2007 00:00:00 15.535 C 6.56 g/m*3 15.54 C 0 km/h
225 12-05-2007 00:00:00 15.02689 C 7.96 g/m*3 15.03 C 0 km/h
Sensor: Nr:Datum:Temp:Abs-Feuchte:Windchill:Wind:
Aussen-T/F 226 13-05-2007 00:00:00 17.04333 C 8.98 g/m*3 17.04 C 0 km/h
227 14-05-2007 00:00:00 15.98917 C 7.81 g/m*3 15.99 C 0 km/h
228 15-05-2007 00:00:00 13.36917 C 7.46 g/m*3 13.37 C 0 km/h
229 16-05-2007 00:00:00 12.17917 C 7.6 g/m*3 12.18 C 0 km/h
230 17-05-2007 00:00:00 10.8525 C 7.97 g/m*3 10.85 C 0 km/h
231 18-05-2007 00:00:00 14.6325 C 8.23 g/m*3 14.63 C 0 km/h
232 19-05-2007 00:00:00 18.53583 C 10.39 g/m*3 18.54 C 0 km/h
233 20-05-2007 00:00:00 21.92667 C 9.73 g/m*3 21.93 C 0 km/h
234 21-05-2007 00:00:00 22.61667 C 11.44 g/m*3 22.62 C 0 km/h
235 22-05-2007 00:00:00 22.86667 C 11.78 g/m*3 22.87 C 0 km/h
236 23-05-2007 00:00:00 20.8675 C 11.32 g/m*3 20.87 C 0 km/h
237 24-05-2007 00:00:00 23.91417 C 11.42 g/m*3 23.91 C 0 km/h
238 25-05-2007 00:00:00 24.57059 C 11.78 g/m*3 24.57 C 0 km/h
239 26-05-2007 00:00:00 21.745 C 12.71 g/m*3 21.75 C 0 km/h
240 27-05-2007 00:00:00 17.5125 C 9.85 g/m*3 17.51 C 0 km/h
241 28-05-2007 00:00:00 12.24917 C 8.51 g/m*3 12.25 C 0 km/h
242 29-05-2007 00:00:00 11.033 C 7.93 g/m*3 11.03 C 0 km/h
243 30-05-2007 00:00:00 13.67465 C 6.29 g/m*3 13.67 C 0 km/h
244 31-05-2007 00:00:00 16.05139 C 8.28 g/m*3 16.05 C 0 km/h
245 01-06-2007 00:00:00 15.42361 C 9.57 g/m*3 15.42 C 0 km/h
246 02-06-2007 00:00:00 18.53611 C 9.82 g/m*3 18.54 C 0 km/h
247 03-06-2007 00:00:00 20.87083 C 10.1 g/m*3 20.87 C 0 km/h
248 04-06-2007 00:00:00 22.02361 C 10.59 g/m*3 22.02 C 0 km/h
249 05-06-2007 00:00:00 21.66389 C 10.23 g/m*3 21.66 C 0 km/h
250 06-06-2007 00:00:00 22.53889 C 10.59 g/m*3 22.54 C 0 km/h
Sensor: Nr:Datum:Temp:Abs-Feuchte:Windchill:Wind:
Aussen-T/F 251 07-06-2007 00:00:00 25.42222 C 11.36 g/m*3 25.42 C 0 km/h
252 08-06-2007 00:00:00 26.47639 C 11.42 g/m*3 26.48 C 0 km/h
253 09-06-2007 00:00:00 23.12917 C 12.28 g/m*3 23.13 C 0 km/h
254 10-06-2007 00:00:00 21.28889 C 12.55 g/m*3 21.29 C 0 km/h
255 11-06-2007 00:00:00 21.88068 C 11.9 g/m*3 21.88 C 0 km/h
256 12-06-2007 00:00:00 20.17167 C 11.8 g/m*3 20.17 C 0 km/h
257 13-06-2007 00:00:00 21.51176 C 10.38 g/m*3 21.51 C 0 km/h
258 14-06-2007 00:00:00 22.15833 C 12.13 g/m*3 22.16 C 0 km/h
259 15-06-2007 00:00:00 19.84667 C 11.6 g/m*3 19.85 C 0 km/h
260 16-06-2007 00:00:00 18.0125 C 9.3 g/m*3 18.01 C 0 km/h
261 17-06-2007 00:00:00 20.0125 C 9.63 g/m*3 20.01 C 0 km/h
262 18-06-2007 00:00:00 20.92583 C 11.23 g/m*3 20.93 C 0 km/h
263 19-06-2007 00:00:00 23.70833 C 11.18 g/m*3 23.71 C 0 km/h
264 20-06-2007 00:00:00 23.68667 C 12.04 g/m*3 23.69 C 0 km/h
265 21-06-2007 00:00:00 18.30167 C 12.42 g/m*3 18.3 C 0 km/h
266 22-06-2007 00:00:00 16.06417 C 10.95 g/m*3 16.06 C 0 km/h
267 23-06-2007 00:00:00 16.04167 C 10.56 g/m*3 16.04 C 0 km/h
268 24-06-2007 00:00:00 19.31667 C 10.02 g/m*3 19.32 C 0 km/h
269 25-06-2007 00:00:00 18.13667 C 10.86 g/m*3 18.14 C 0 km/h
270 26-06-2007 00:00:00 13.90667 C 8.35 g/m*3 13.91 C 0 km/h
271 27-06-2007 00:00:00 14.2225 C 6.63 g/m*3 14.22 C 0 km/h
272 28-06-2007 00:00:00 15.82833 C 7.44 g/m*3 15.83 C 0 km/h
273 29-06-2007 00:00:00 16.88417 C 8.32 g/m*3 16.88 C 0 km/h
274 30-06-2007 00:00:00 18.675 C 9.69 g/m*3 18.68 C 0 km/h
275 01-07-2007 00:00:00 20.8525 C 10.65 g/m*3 20.85 C 0 km/h
Sensor: Nr:Datum:Temp:Abs-Feuchte:Windchill:Wind:
Aussen-T/F 276 02-07-2007 00:00:00 19.54917 C 10.43 g/m*3 19.55 C 0 km/h
277 03-07-2007 00:00:00 15.42583 C 9.84 g/m*3 15.43 C 0 km/h
278 04-07-2007 00:00:00 15.17417 C 8.93 g/m*3 15.17 C 0 km/h
279 05-07-2007 00:00:00 15.1325 C 9.55 g/m*3 15.13 C 0 km/h
280 06-07-2007 00:00:00 17.63613 C 8.26 g/m*3 17.64 C 0 km/h
281 07-07-2007 00:00:00 18.55167 C 7.14 g/m*3 18.55 C 0 km/h
282 08-07-2007 00:00:00 19.8175 C 8.32 g/m*3 19.82 C 0 km/h
283 09-07-2007 00:00:00 17.15583 C 9.38 g/m*3 17.16 C 0 km/h
284 10-07-2007 00:00:00 14.66583 C 9.37 g/m*3 14.67 C 0 km/h
285 11-07-2007 00:00:00 14.37833 C 9.44 g/m*3 14.38 C 0 km/h
286 12-07-2007 00:00:00 17.7 C 9.66 g/m*3 17.7 C 0 km/h
287 13-07-2007 00:00:00 22.43167 C 11.88 g/m*3 22.43 C 0 km/h
288 14-07-2007 00:00:00 25.05 C 11.69 g/m*3 25.05 C 0 km/h
289 15-07-2007 00:00:00 27.2075 C 11.44 g/m*3 27.21 C 0 km/h
290 16-07-2007 00:00:00 26.8025 C 8.93 g/m*3 26.8 C 0 km/h
291 17-07-2007 00:00:00 25.11167 C 8.56 g/m*3 25.11 C 0 km/h
292 18-07-2007 00:00:00 22.78 C 9.2 g/m*3 22.78 C 0 km/h
293 19-07-2007 00:00:00 20.29333 C 11.02 g/m*3 20.29 C 0 km/h
294 20-07-2007 00:00:00 22.04917 C 12.14 g/m*3 22.05 C 0 km/h
295 21-07-2007 00:00:00 19.74917 C 9.69 g/m*3 19.75 C 0 km/h
296 22-07-2007 00:00:00 19.89917 C 8.33 g/m*3 19.9 C 0 km/h
297 23-07-2007 00:00:00 16.33333 C 10.14 g/m*3 16.33 C 0 km/h
298 24-07-2007 00:00:00 16.72667 C 9.48 g/m*3 16.73 C 0 km/h
299 25-07-2007 00:00:00 19.68571 C 8.82 g/m*3 19.69 C 0 km/h
300 26-07-2007 00:00:00 21.75583 C 9.38 g/m*3 21.76 C 0 km/h
Sensor: Nr:Datum:Temp:Abs-Feuchte:Windchill:Wind:
Aussen-T/F 301 27-07-2007 00:00:00 22.4675 C 8.25 g/m*3 22.47 C 0 km/h
302 28-07-2007 00:00:00 21.095 C 10.2 g/m*3 21.1 C 0 km/h
303 29-07-2007 00:00:00 17.3075 C 9.52 g/m*3 17.31 C 0 km/h
304 30-07-2007 00:00:00 14.66167 C 6.94 g/m*3 14.66 C 0 km/h
305 31-07-2007 00:00:00 15.68167 C 6.71 g/m*3 15.68 C 0 km/h
306 01-08-2007 00:00:00 18.53833 C 7.48 g/m*3 18.54 C 0 km/h
307 02-08-2007 00:00:00 18.3275 C 9.54 g/m*3 18.33 C 0 km/h
308 03-08-2007 00:00:00 19.78083 C 8.92 g/m*3 19.78 C 0 km/h
309 04-08-2007 00:00:00 21.05 C 8.85 g/m*3 21.05 C 0 km/h
310 05-08-2007 00:00:00 23.69833 C 9.12 g/m*3 23.7 C 0 km/h
311 06-08-2007 00:00:00 24.23417 C 9.32 g/m*3 24.23 C 0 km/h
312 07-08-2007 00:00:00 18.36167 C 12.63 g/m*3 18.36 C 0 km/h
313 08-08-2007 00:00:00 16.0175 C 11.01 g/m*3 16.02 C 0 km/h
314 09-08-2007 00:00:00 14.26667 C 11.55 g/m*3 14.27 C 0 km/h
315 10-08-2007 00:00:00 17.82833 C 13.5 g/m*3 17.83 C 0 km/h
316 11-08-2007 00:00:00 19.64083 C 11.07 g/m*3 19.64 C 0 km/h
317 12-08-2007 00:00:00 20.07417 C 10.09 g/m*3 20.07 C 0 km/h
318 13-08-2007 00:00:00 20.9175 C 10.13 g/m*3 20.92 C 0 km/h
319 14-08-2007 00:00:00 20.9275 C 9.64 g/m*3 20.93 C 0 km/h
320 15-08-2007 00:00:00 23.49917 C 12.92 g/m*3 23.5 C 0 km/h
321 16-08-2007 00:00:00 18.74667 C 10.51 g/m*3 18.75 C 0 km/h
322 17-08-2007 00:00:00 17.27833 C 8.08 g/m*3 17.28 C 0 km/h
323 18-08-2007 00:00:00 17.40917 C 8.03 g/m*3 17.41 C 0 km/h
324 19-08-2007 00:00:00 17.24583 C 9.91 g/m*3 17.25 C 0 km/h
325 20-08-2007 00:00:00 17.315 C 9.7 g/m*3 17.32 C 0 km/h
Sensor: Nr:Datum:Temp:Abs-Feuchte:Windchill:Wind:
Aussen-T/F 326 21-08-2007 00:00:00 15.4225 C 10.31 g/m*3 15.42 C 0 km/h
327 22-08-2007 00:00:00 15.95593 C 11.84 g/m*3 15.96 C 0 km/h
328 23-08-2007 00:00:00 17.7575 C 11.98 g/m*3 17.76 C 0 km/h
329 24-08-2007 00:00:00 19.43833 C 11.56 g/m*3 19.44 C 0 km/h
330 25-08-2007 00:00:00 21.42 C 11.91 g/m*3 21.42 C 0 km/h
331 26-08-2007 00:00:00 21.99167 C 12.1 g/m*3 21.99 C 0 km/h
332 27-08-2007 00:00:00 19.53583 C 8.84 g/m*3 19.54 C 0 km/h
333 28-08-2007 00:00:00 16.42167 C 8.1 g/m*3 16.42 C 0 km/h
334 29-08-2007 00:00:00 17.285 C 6.71 g/m*3 17.29 C 0 km/h
335 30-08-2007 00:00:00 15.3675 C 7.01 g/m*3 15.37 C 0 km/h
336 31-08-2007 00:00:00 17.5825 C 9.89 g/m*3 17.58 C 0 km/h
337 01-09-2007 00:00:00 17.1975 C 10.01 g/m*3 17.2 C 0 km/h
338 02-09-2007 00:00:00 17.35583 C 9 g/m*3 17.36 C 0 km/h
339 03-09-2007 00:00:00 15.74917 C 9.08 g/m*3 15.75 C 0 km/h
340 04-09-2007 00:00:00 12.88417 C 7.04 g/m*3 12.88 C 0 km/h
341 05-09-2007 00:00:00 12.6395 C 6.92 g/m*3 12.64 C 0 km/h
342 06-09-2007 00:00:00 15.00917 C 9.43 g/m*3 15.01 C 0 km/h
343 07-09-2007 00:00:00 15.9325 C 9.22 g/m*3 15.93 C 0 km/h
344 08-09-2007 00:00:00 15.13667 C 10.05 g/m*3 15.14 C 0 km/h
345 09-09-2007 00:00:00 15.125 C 9.17 g/m*3 15.13 C 0 km/h
346 10-09-2007 00:00:00 12.4075 C 8.68 g/m*3 12.41 C 0 km/h
347 11-09-2007 00:00:00 14.36833 C 8.61 g/m*3 14.37 C 0 km/h
348 12-09-2007 00:00:00 14.94417 C 8.54 g/m*3 14.94 C 0 km/h
349 13-09-2007 00:00:00 14.5175 C 8.49 g/m*3 14.52 C 0 km/h
350 14-09-2007 00:00:00 15.68417 C 8.62 g/m*3 15.68 C 0 km/h
Sensor: Nr:Datum:Temp:Abs-Feuchte:Windchill:Wind:
Aussen-T/F 351 15-09-2007 00:00:00 16.86917 C 8.24 g/m*3 16.87 C 0 km/h
352 16-09-2007 00:00:00 15.27 C 8.22 g/m*3 15.27 C 0 km/h
353 17-09-2007 00:00:00 16.68833 C 10.1 g/m*3 16.69 C 0 km/h
354 18-09-2007 00:00:00 11.46833 C 8.27 g/m*3 11.47 C 0 km/h
355 19-09-2007 00:00:00 10.3275 C 6.41 g/m*3 10.33 C 0 km/h
356 20-09-2007 00:00:00 13.68083 C 7.03 g/m*3 13.68 C 0 km/h
357 21-09-2007 00:00:00 14.35833 C 7.71 g/m*3 14.36 C 0 km/h
358 22-09-2007 00:00:00 15.97583 C 8.74 g/m*3 15.98 C 0 km/h
359 23-09-2007 00:00:00 17.80333 C 9.5 g/m*3 17.8 C 0 km/h
360 24-09-2007 00:00:00 16.95833 C 9.49 g/m*3 16.96 C 0 km/h
361 25-09-2007 00:00:00 12.91917 C 7.71 g/m*3 12.92 C 0 km/h
362 26-09-2007 00:00:00 12.2675 C 7.86 g/m*3 12.27 C 0 km/h
363 27-09-2007 00:00:00 10.19083 C 8.85 g/m*3 10.19 C 0 km/h
364 28-09-2007 00:00:00 12.50168 C 8.71 g/m*3 12.5 C 0 km/h
365 29-09-2007 00:00:00 13.54444 C 8.6 g/m*3 13.54 C 0 km/h

Maximal/Minimal-Werte vom 23.02.2003 - 30.09.2020

Sensor Min Max Avg
Temp
(Aussen-T/F)
-16.4 °C
20-12-2009  01:30:01
40.4 °C
25-07-2019  16:20:00
11.32 °C

Die Daten stammen von einer Davis Vantage Pro 2 Wetter-Station und werden unter Linux mit der Software wview2wettercgi und aufbereitet. Alle Angaben erfolgen ohne Gewähr für ihre Vollständigkeit oder Richtigkeit.
Kontakt: Rainer Krienke krienke@uni-koblenz.de . Meine Webseiten an der Uni Koblenz oder privat.
Version: $Revision: 0.78 $